createdAt,value
2023-02-11T00:00:19.382Z,1064.00
2023-02-11T00:01:19.459Z,1064.00
2023-02-11T00:02:19.596Z,1062.00
2023-02-11T00:03:19.593Z,1063.00
2023-02-11T00:04:19.628Z,1065.00
2023-02-11T00:05:19.689Z,1063.00
2023-02-11T00:06:19.744Z,1064.00
2023-02-11T00:07:19.807Z,1063.00
2023-02-11T00:08:19.870Z,1060.00
2023-02-11T00:09:19.928Z,1063.00
2023-02-11T00:10:19.997Z,1063.00
2023-02-11T00:12:20.116Z,1057.00
2023-02-11T00:13:20.188Z,1052.00
2023-02-11T00:14:20.252Z,1055.00
2023-02-11T01:31:25.250Z,965.00
2023-02-11T01:32:25.227Z,965.00
2023-02-11T01:33:25.306Z,964.00
2023-02-11T01:34:25.359Z,961.00
2023-02-11T01:35:25.454Z,959.00
2023-02-11T01:36:25.500Z,957.00
2023-02-11T01:37:25.539Z,956.00
2023-02-11T01:38:25.605Z,958.00
2023-02-11T01:39:25.663Z,958.00
2023-02-11T01:40:25.720Z,959.00
2023-02-11T01:41:25.797Z,959.00
2023-02-11T01:42:25.855Z,956.00
2023-02-11T01:43:25.926Z,952.00
2023-02-11T01:44:25.987Z,951.00
2023-02-11T01:45:26.044Z,956.00
2023-02-11T01:46:26.184Z,954.00
2023-02-11T01:47:26.182Z,954.00
2023-02-11T01:48:26.255Z,957.00
2023-02-11T01:49:26.367Z,955.00
2023-02-11T01:50:26.372Z,956.00
2023-02-11T01:51:26.443Z,954.00
2023-02-11T01:52:26.499Z,952.00
2023-02-11T01:53:26.574Z,952.00
2023-02-11T01:54:26.635Z,949.00
2023-02-11T01:55:26.702Z,949.00
2023-02-11T01:56:26.809Z,949.00
2023-02-11T01:57:26.834Z,946.00
2023-02-11T01:58:26.903Z,948.00
2023-02-11T01:59:26.976Z,948.00
2023-02-11T02:00:27.023Z,946.00
2023-02-11T02:01:27.240Z,945.00
2023-02-11T02:02:27.170Z,943.00
2023-02-11T02:03:27.260Z,942.00
2023-02-11T02:04:27.302Z,938.00
2023-02-11T02:05:27.386Z,935.00
2023-02-11T02:06:27.430Z,934.00
2023-02-11T02:07:27.511Z,931.00
2023-02-11T02:08:27.583Z,932.00
2023-02-11T02:09:27.635Z,928.00
2023-02-11T02:10:27.699Z,926.00
2023-02-11T02:11:27.771Z,928.00
2023-02-11T02:12:27.825Z,925.00
2023-02-11T04:04:35.180Z,836.00
2023-02-11T04:05:35.198Z,834.00
2023-02-11T04:06:35.219Z,830.00
2023-02-11T04:07:35.239Z,831.00
2023-02-11T04:08:35.282Z,828.00
2023-02-11T04:09:35.313Z,829.00
2023-02-11T04:10:35.358Z,831.00
2023-02-11T04:11:35.407Z,830.00
2023-02-11T04:12:35.436Z,827.00
2023-02-11T04:13:35.476Z,824.00
2023-02-11T04:14:35.533Z,823.00
2023-02-11T04:15:35.586Z,821.00
2023-02-11T04:16:35.746Z,821.00
2023-02-11T04:17:35.712Z,823.00
2023-02-11T04:18:35.755Z,826.00
2023-02-11T04:19:35.813Z,826.00
2023-02-11T04:20:35.878Z,825.00
2023-02-11T04:21:35.936Z,825.00
2023-02-11T04:22:35.992Z,825.00
2023-02-11T04:23:36.052Z,824.00
2023-02-11T04:24:36.119Z,825.00
2023-02-11T04:25:36.172Z,823.00
2023-02-11T04:26:36.226Z,822.00
2023-02-11T04:27:36.268Z,821.00
2023-02-11T04:28:36.394Z,824.00
2023-02-11T04:29:36.340Z,823.00
2023-02-11T04:30:36.405Z,821.00
2023-02-11T04:31:36.522Z,819.00
2023-02-11T04:32:36.529Z,819.00
2023-02-11T04:33:36.593Z,818.00
2023-02-11T04:34:36.651Z,820.00
2023-02-11T04:35:36.701Z,817.00
2023-02-11T04:36:36.761Z,815.00
2023-02-11T06:55:45.194Z,734.00
2023-02-11T07:07:45.190Z,734.00
2023-02-11T07:08:45.245Z,732.00
2023-02-11T07:09:45.280Z,728.00
2023-02-11T07:10:45.325Z,730.00
2023-02-11T07:11:45.389Z,727.00
2023-02-11T07:12:46.389Z,723.00
2023-02-11T07:13:45.376Z,726.00
2023-02-11T07:14:45.369Z,723.00
2023-02-11T07:15:45.364Z,725.00
2023-02-11T07:16:45.362Z,724.00
2023-02-11T07:17:45.366Z,728.00
2023-02-11T07:18:45.356Z,732.00
2023-02-11T07:19:45.353Z,734.00
2023-02-11T07:20:45.348Z,733.00
2023-02-11T07:21:45.351Z,736.00
2023-02-11T07:22:45.375Z,734.00
2023-02-11T07:23:45.414Z,733.00
2023-02-11T07:24:45.472Z,733.00
2023-02-11T07:25:45.522Z,732.00
2023-02-11T07:26:45.574Z,729.00
2023-02-11T07:27:45.645Z,730.00
2023-02-11T07:28:45.704Z,729.00
2023-02-11T07:29:45.736Z,727.00
2023-02-11T07:30:45.826Z,726.00
2023-02-11T07:31:45.889Z,723.00
2023-02-11T07:32:45.876Z,726.00
2023-02-11T07:33:45.943Z,728.00
2023-02-11T07:34:46.083Z,727.00
2023-02-11T07:35:46.012Z,726.00
2023-02-11T07:36:46.085Z,723.00
2023-02-11T07:37:46.088Z,722.00
2023-02-11T07:38:46.142Z,722.00
2023-02-11T07:39:46.180Z,723.00
2023-02-11T07:40:46.218Z,723.00
2023-02-11T07:41:46.278Z,727.00
2023-02-11T07:42:46.315Z,727.00
2023-02-11T07:43:46.397Z,727.00
2023-02-11T07:44:49.243Z,723.00
2023-02-11T07:45:46.419Z,722.00
2023-02-11T07:46:46.526Z,720.00
2023-02-11T07:47:46.417Z,721.00
2023-02-11T07:48:46.418Z,718.00
2023-02-11T07:49:46.431Z,721.00
2023-02-11T07:50:46.426Z,721.00
2023-02-11T07:51:46.416Z,719.00
2023-02-11T07:52:46.417Z,720.00
2023-02-11T07:53:46.422Z,720.00
2023-02-11T07:54:46.425Z,717.00
2023-02-11T07:55:46.416Z,715.00
2023-02-11T07:56:46.411Z,714.00
2023-02-11T07:57:46.405Z,715.00
2023-02-11T07:58:46.411Z,716.00
2023-02-11T07:59:46.405Z,716.00
2023-02-11T08:00:46.466Z,719.00
2023-02-11T08:01:46.438Z,717.00
2023-02-11T08:02:46.421Z,717.00
2023-02-11T08:03:46.424Z,716.00
2023-02-11T08:04:46.426Z,715.00
2023-02-11T08:05:46.432Z,714.00
2023-02-11T08:06:46.438Z,712.00
2023-02-11T08:07:46.435Z,713.00
2023-02-11T08:08:46.454Z,715.00
2023-02-11T08:09:46.441Z,714.00
2023-02-11T08:10:46.447Z,714.00
2023-02-11T08:11:46.452Z,710.00
2023-02-11T08:12:46.448Z,710.00
2023-02-11T08:13:46.450Z,708.00
2023-02-11T08:14:46.448Z,706.00
2023-02-11T08:15:46.449Z,707.00
2023-02-11T08:16:46.477Z,709.00
2023-02-11T08:17:46.443Z,708.00
2023-02-11T08:18:46.493Z,706.00
2023-02-11T08:19:46.568Z,707.00
2023-02-11T08:20:46.594Z,704.00
2023-02-11T08:21:46.652Z,704.00
2023-02-11T08:22:46.715Z,706.00
2023-02-11T08:23:46.783Z,704.00
2023-02-11T08:24:46.829Z,706.00
2023-02-11T08:25:46.890Z,706.00
2023-02-11T08:26:46.937Z,706.00
2023-02-11T08:27:46.969Z,706.00
2023-02-11T08:28:46.992Z,704.00
2023-02-11T08:29:47.050Z,706.00
2023-02-11T08:30:47.137Z,703.00
2023-02-11T08:31:47.281Z,700.00
2023-02-11T08:32:47.208Z,696.00
2023-02-11T08:33:48.218Z,700.00
2023-02-11T08:34:47.336Z,702.00
2023-02-11T08:35:47.388Z,702.00
2023-02-11T08:36:47.465Z,701.00
2023-02-11T08:37:47.520Z,699.00
2023-02-11T08:38:47.605Z,698.00
2023-02-11T08:39:47.687Z,699.00
2023-02-11T08:40:47.753Z,698.00
2023-02-11T08:41:47.791Z,699.00
2023-02-11T08:42:47.846Z,698.00
2023-02-11T08:43:47.895Z,700.00
2023-02-11T08:44:47.959Z,702.00
2023-02-11T08:45:48.106Z,701.00
2023-02-11T08:46:48.125Z,702.00
2023-02-11T08:47:48.150Z,702.00
2023-02-11T08:48:48.191Z,700.00
2023-02-11T08:49:48.261Z,699.00
2023-02-11T08:50:48.314Z,695.00
2023-02-11T08:51:48.339Z,691.00
2023-02-11T08:52:48.417Z,690.00
2023-02-11T08:53:48.471Z,690.00
2023-02-11T08:54:48.512Z,687.00
2023-02-11T08:55:48.742Z,687.00
2023-02-11T08:56:48.619Z,686.00
2023-02-11T08:57:48.674Z,686.00
2023-02-11T08:58:48.730Z,684.00
2023-02-11T08:59:48.810Z,687.00
2023-02-11T09:00:49.316Z,688.00
2023-02-11T09:01:49.053Z,689.00
2023-02-11T09:02:48.991Z,689.00
2023-02-11T09:03:49.026Z,688.00
2023-02-11T09:04:49.085Z,686.00
2023-02-11T09:05:49.145Z,685.00
2023-02-11T09:06:49.215Z,685.00
2023-02-11T09:07:49.287Z,685.00
2023-02-11T09:08:49.417Z,686.00
2023-02-11T09:09:49.440Z,684.00
2023-02-11T09:10:49.904Z,682.00
2023-02-11T09:11:49.541Z,682.00
2023-02-11T09:12:49.577Z,681.00
2023-02-11T09:13:51.478Z,679.00
2023-02-11T09:14:49.658Z,683.00
2023-02-11T09:15:49.645Z,680.00
2023-02-11T09:16:49.752Z,679.00
2023-02-11T09:17:49.636Z,679.00
2023-02-11T09:18:49.645Z,680.00
2023-02-11T09:19:49.639Z,680.00
2023-02-11T09:20:50.035Z,681.00
2023-02-11T09:21:49.628Z,682.00
2023-02-11T09:22:49.626Z,684.00
2023-02-11T09:23:49.631Z,683.00
2023-02-11T09:24:49.629Z,684.00
2023-02-11T09:25:49.952Z,683.00
2023-02-11T09:26:49.614Z,683.00
2023-02-11T09:27:49.611Z,685.00
2023-02-11T09:28:49.592Z,684.00
2023-02-11T09:29:49.584Z,681.00
2023-02-11T09:30:50.075Z,683.00
2023-02-11T09:31:49.777Z,683.00
2023-02-11T09:32:49.577Z,683.00
2023-02-11T09:33:49.567Z,679.00
2023-02-11T09:34:49.560Z,678.00
2023-02-11T09:35:49.555Z,678.00
2023-02-11T09:36:49.592Z,678.00
2023-02-11T09:37:49.555Z,675.00
2023-02-11T09:38:49.545Z,672.00
2023-02-11T09:39:49.539Z,672.00
2023-02-11T09:40:49.847Z,673.00
2023-02-11T09:41:49.555Z,674.00
2023-02-11T09:42:49.537Z,675.00
2023-02-11T09:43:49.553Z,672.00
2023-02-11T09:44:49.546Z,672.00
2023-02-11T09:45:49.563Z,670.00
2023-02-11T09:46:49.555Z,669.00
2023-02-11T09:47:49.547Z,671.00
2023-02-11T09:48:49.550Z,671.00
2023-02-11T09:49:49.625Z,668.00
2023-02-11T09:50:49.962Z,666.00
2023-02-11T09:51:49.747Z,669.00
2023-02-11T09:52:49.803Z,668.00
2023-02-11T09:53:49.865Z,668.00
2023-02-11T09:54:49.929Z,666.00
2023-02-11T09:55:49.994Z,664.00
2023-02-11T09:56:50.050Z,667.00
2023-02-11T09:57:50.110Z,669.00
2023-02-11T09:58:50.179Z,671.00
2023-02-11T09:59:50.238Z,669.00
2023-02-11T10:00:50.653Z,669.00
2023-02-11T10:01:50.424Z,667.00
2023-02-11T10:02:50.446Z,668.00
2023-02-11T10:03:50.503Z,667.00
2023-02-11T10:04:50.565Z,667.00
2023-02-11T10:05:50.639Z,667.00
2023-02-11T10:06:50.710Z,667.00
2023-02-11T10:07:50.773Z,665.00
2023-02-11T10:08:50.840Z,667.00
2023-02-11T10:09:50.907Z,669.00
2023-02-11T10:10:51.317Z,668.00
2023-02-11T10:11:51.033Z,668.00
2023-02-11T10:12:51.096Z,667.00
2023-02-11T10:13:51.157Z,666.00
2023-02-11T10:14:51.223Z,663.00
2023-02-11T10:15:51.365Z,662.00
2023-02-11T10:16:51.359Z,663.00
2023-02-11T10:17:51.414Z,663.00
2023-02-11T10:18:51.474Z,661.00
2023-02-11T10:19:51.540Z,661.00
2023-02-11T10:20:51.880Z,661.00
2023-02-11T10:21:51.676Z,660.00
2023-02-11T10:22:51.733Z,660.00
2023-02-11T10:23:51.796Z,660.00
2023-02-11T10:24:51.850Z,660.00
2023-02-11T10:25:51.910Z,660.00
2023-02-11T10:26:51.988Z,660.00
2023-02-11T10:27:52.045Z,661.00
2023-02-11T10:28:52.100Z,661.00
2023-02-11T10:29:52.164Z,659.00
2023-02-11T10:30:52.643Z,658.00
2023-02-11T10:31:52.328Z,658.00
2023-02-11T10:32:52.338Z,656.00
2023-02-11T10:33:52.401Z,658.00
2023-02-11T10:34:52.447Z,657.00
2023-02-11T10:35:53.268Z,657.00
2023-02-11T10:36:52.568Z,657.00
2023-02-11T10:37:52.638Z,657.00
2023-02-11T10:38:52.684Z,658.00
2023-02-11T10:39:52.738Z,656.00
2023-02-11T10:40:53.149Z,653.00
2023-02-11T10:41:52.845Z,652.00
2023-02-11T10:42:55.486Z,653.00
2023-02-11T10:43:52.896Z,653.00
2023-02-11T10:44:52.889Z,653.00
2023-02-11T10:45:52.898Z,654.00
2023-02-11T10:46:52.881Z,652.00
2023-02-11T10:47:52.958Z,652.00
2023-02-11T10:48:52.896Z,653.00
2023-02-11T10:49:52.851Z,654.00
2023-02-11T10:50:52.961Z,658.00
2023-02-11T10:51:52.840Z,659.00
2023-02-11T10:52:52.840Z,657.00
2023-02-11T10:53:52.825Z,660.00
2023-02-11T10:54:52.818Z,660.00
2023-02-11T10:55:52.822Z,657.00
2023-02-11T10:56:52.824Z,656.00
2023-02-11T10:57:52.809Z,655.00
2023-02-11T10:58:52.792Z,657.00
2023-02-11T10:59:52.791Z,659.00
2023-02-11T11:00:53.239Z,659.00
2023-02-11T11:01:52.830Z,659.00
2023-02-11T11:02:52.781Z,660.00
2023-02-11T11:03:52.780Z,659.00
2023-02-11T11:04:52.786Z,661.00
2023-02-11T11:05:52.771Z,661.00
2023-02-11T11:06:52.752Z,658.00
2023-02-11T11:07:52.751Z,655.00
2023-02-11T11:08:52.748Z,657.00
2023-02-11T11:09:52.745Z,655.00
2023-02-11T11:10:53.050Z,655.00
2023-02-11T11:11:52.752Z,654.00
2023-02-11T11:12:52.753Z,653.00
2023-02-11T11:13:52.745Z,654.00
2023-02-11T11:14:52.736Z,656.00
2023-02-11T11:15:52.743Z,653.00
2023-02-11T11:16:52.713Z,650.00
2023-02-11T11:17:52.714Z,648.00
2023-02-11T11:18:52.711Z,646.00
2023-02-11T11:19:52.713Z,647.00
2023-02-11T11:20:52.865Z,645.00
2023-02-11T11:21:52.689Z,646.00
2023-02-11T11:22:52.679Z,648.00
2023-02-11T11:23:52.674Z,650.00
2023-02-11T11:24:52.674Z,648.00
2023-02-11T11:25:52.653Z,648.00
2023-02-11T11:26:52.652Z,646.00
2023-02-11T11:27:52.653Z,648.00
2023-02-11T11:28:52.673Z,652.00
2023-02-11T11:29:52.708Z,651.00
2023-02-11T11:30:53.259Z,651.00
2023-02-11T11:31:52.846Z,651.00
2023-02-11T11:32:52.813Z,652.00
2023-02-11T11:33:52.847Z,650.00
2023-02-11T11:34:52.875Z,652.00
2023-02-11T11:35:52.942Z,649.00
2023-02-11T11:36:52.940Z,646.00
2023-02-11T11:37:52.982Z,647.00
2023-02-11T11:38:53.012Z,649.00
2023-02-11T11:39:53.037Z,648.00
2023-02-11T11:40:53.057Z,647.00
2023-02-11T11:41:53.093Z,647.00
2023-02-11T11:42:53.126Z,650.00
2023-02-11T11:43:53.167Z,648.00
2023-02-11T11:44:53.190Z,648.00
2023-02-11T11:45:53.217Z,648.00
2023-02-11T11:46:53.289Z,650.00
2023-02-11T11:47:53.300Z,649.00
2023-02-11T11:48:53.329Z,647.00
2023-02-11T11:49:53.376Z,647.00
2023-02-11T11:50:53.449Z,646.00
2023-02-11T11:51:53.445Z,647.00
2023-02-11T11:52:53.488Z,647.00
2023-02-11T11:53:53.507Z,648.00
2023-02-11T11:54:53.558Z,648.00
2023-02-11T11:55:53.598Z,649.00
2023-02-11T11:56:53.625Z,650.00
2023-02-11T11:57:53.664Z,649.00
2023-02-11T11:58:53.696Z,647.00
2023-02-11T11:59:53.735Z,642.00
2023-02-11T12:13:55.296Z,629.00
2023-02-11T12:33:55.211Z,634.00
2023-02-11T12:34:55.252Z,632.00
2023-02-11T12:35:55.300Z,631.00
2023-02-11T12:36:55.362Z,630.00
2023-02-11T12:37:55.404Z,630.00
2023-02-11T12:38:55.451Z,628.00
2023-02-11T12:39:55.565Z,628.00
2023-02-11T12:40:55.567Z,627.00
2023-02-11T12:41:55.606Z,628.00
2023-02-11T12:42:55.660Z,629.00
2023-02-11T12:43:55.704Z,628.00
2023-02-11T12:44:55.754Z,628.00
2023-02-11T12:45:55.847Z,631.00
2023-02-11T12:46:55.865Z,631.00
2023-02-11T12:47:55.915Z,632.00
2023-02-11T12:48:55.976Z,633.00
2023-02-11T12:49:56.026Z,632.00
2023-02-11T12:50:56.078Z,635.00
2023-02-11T12:51:56.133Z,634.00
2023-02-11T12:52:56.190Z,630.00
2023-02-11T12:53:56.242Z,627.00
2023-02-11T12:54:56.304Z,629.00
2023-02-11T12:55:56.362Z,631.00
2023-02-11T12:56:56.409Z,631.00
2023-02-11T12:57:56.491Z,632.00
2023-02-11T12:58:56.558Z,631.00
2023-02-11T12:59:56.619Z,629.00
2023-02-11T13:00:56.657Z,630.00
2023-02-11T13:01:56.698Z,631.00
2023-02-11T13:02:56.733Z,631.00
2023-02-11T13:03:56.786Z,630.00
2023-02-11T13:04:56.841Z,628.00
2023-02-11T13:05:56.890Z,625.00
2023-02-11T13:06:56.941Z,624.00
2023-02-11T13:07:56.995Z,623.00
2023-02-11T13:08:57.055Z,623.00
2023-02-11T13:09:57.104Z,625.00
2023-02-11T13:10:57.156Z,624.00
2023-02-11T13:11:57.212Z,623.00
2023-02-11T13:12:57.265Z,624.00
2023-02-11T13:13:57.321Z,622.00
2023-02-11T13:14:57.373Z,620.00
2023-02-11T13:15:57.429Z,616.00
2023-02-11T13:16:57.566Z,619.00
2023-02-11T13:17:57.532Z,619.00
2023-02-11T13:18:57.587Z,618.00
2023-02-11T13:19:57.673Z,622.00
2023-02-11T13:36:58.710Z,616.00
2023-02-11T13:37:58.786Z,617.00
2023-02-11T13:38:58.837Z,618.00
2023-02-11T13:39:58.910Z,615.00
2023-02-11T13:40:58.965Z,615.00
2023-02-11T13:41:59.033Z,615.00
2023-02-11T13:42:59.100Z,619.00
2023-02-11T13:43:59.159Z,617.00
2023-02-11T13:44:59.235Z,615.00
2023-02-11T13:45:59.429Z,616.00
2023-02-11T13:46:59.379Z,618.00
2023-02-11T13:47:59.448Z,617.00
2023-02-11T13:48:59.532Z,615.00
2023-02-11T13:49:59.585Z,614.00
2023-02-11T13:50:59.644Z,617.00
2023-02-11T13:51:59.714Z,615.00
2023-02-11T13:52:59.783Z,614.00
2023-02-11T13:53:59.855Z,616.00
2023-02-11T13:54:59.925Z,617.00
2023-02-11T13:55:59.994Z,618.00
2023-02-11T13:57:00.096Z,617.00
2023-02-11T13:58:00.136Z,617.00
2023-02-11T13:59:02.024Z,616.00
2023-02-11T14:00:00.291Z,616.00
2023-02-11T14:01:00.387Z,616.00
2023-02-11T14:02:00.460Z,615.00
2023-02-11T14:03:00.575Z,614.00
2023-02-11T14:04:00.598Z,615.00
2023-02-11T14:05:00.666Z,614.00
2023-02-11T14:06:00.732Z,613.00
2023-02-11T14:07:00.794Z,615.00
2023-02-11T14:08:00.867Z,614.00
2023-02-11T14:09:00.933Z,618.00
2023-02-11T14:10:01.007Z,617.00
2023-02-11T14:11:01.096Z,619.00
2023-02-11T14:12:01.169Z,619.00
2023-02-11T14:13:01.320Z,616.00
2023-02-11T14:14:01.289Z,618.00
2023-02-11T14:24:02.014Z,615.00
2023-02-11T15:26:05.152Z,607.00
2023-02-11T15:27:05.272Z,609.00
2023-02-11T15:28:05.345Z,610.00
2023-02-11T15:29:05.308Z,610.00
2023-02-11T15:30:05.431Z,609.00
2023-02-11T15:31:05.499Z,608.00
2023-02-11T15:32:05.627Z,606.00
2023-02-11T15:33:05.640Z,608.00
2023-02-11T15:34:05.544Z,608.00
2023-02-11T15:35:05.587Z,606.00
2023-02-11T15:36:05.632Z,606.00
2023-02-11T15:37:05.677Z,606.00
2023-02-11T15:38:05.743Z,605.00
2023-02-11T15:39:05.712Z,606.00
2023-02-11T15:40:05.753Z,606.00
2023-02-11T15:41:05.770Z,609.00
2023-02-11T15:42:05.833Z,610.00
2023-02-11T15:43:05.849Z,609.00
2023-02-11T15:44:05.910Z,610.00
2023-02-11T15:45:05.955Z,610.00
2023-02-11T15:46:06.054Z,607.00
2023-02-11T15:47:06.060Z,606.00
2023-02-11T15:48:06.125Z,607.00
2023-02-11T15:49:06.161Z,607.00
2023-02-11T15:50:06.228Z,606.00
2023-02-11T15:51:06.277Z,609.00
2023-02-11T15:52:06.305Z,609.00
2023-02-11T15:53:06.354Z,610.00
2023-02-11T15:54:06.391Z,613.00
2023-02-11T15:55:06.417Z,612.00
2023-02-11T15:56:06.490Z,612.00
2023-02-11T15:57:06.549Z,609.00
2023-02-11T15:58:06.600Z,609.00
2023-02-11T15:59:06.656Z,608.00
2023-02-11T16:00:06.707Z,608.00
2023-02-11T16:01:06.763Z,607.00
2023-02-11T16:02:06.926Z,606.00
2023-02-11T16:03:06.883Z,606.00
2023-02-11T16:04:07.013Z,604.00
2023-02-11T16:05:06.954Z,603.00
2023-02-11T16:06:06.992Z,605.00
2023-02-11T16:07:07.017Z,603.00
2023-02-11T16:08:07.058Z,605.00
2023-02-11T16:09:07.096Z,606.00
2023-02-11T16:10:07.129Z,605.00
2023-02-11T16:11:07.154Z,606.00
2023-02-11T16:12:07.156Z,605.00
2023-02-11T16:13:07.158Z,605.00
2023-02-11T16:14:07.236Z,605.00
2023-02-11T16:15:07.226Z,607.00
2023-02-11T16:16:07.256Z,609.00
2023-02-11T16:17:07.251Z,608.00
2023-02-11T16:18:07.325Z,608.00
2023-02-11T16:19:07.398Z,606.00
2023-02-11T16:20:07.431Z,605.00
2023-02-11T16:21:07.453Z,605.00
2023-02-11T16:22:07.461Z,606.00
2023-02-11T16:23:07.480Z,607.00
2023-02-11T16:24:07.599Z,608.00
2023-02-11T16:25:07.479Z,610.00
2023-02-11T16:26:07.478Z,610.00
2023-02-11T16:27:07.500Z,610.00
2023-02-11T16:28:07.554Z,610.00
2023-02-11T16:29:07.536Z,606.00
2023-02-11T16:30:07.575Z,604.00
2023-02-11T16:31:07.758Z,603.00
2023-02-11T16:32:07.656Z,602.00
2023-02-11T16:33:07.587Z,603.00
2023-02-11T16:34:07.584Z,604.00
2023-02-11T16:35:07.608Z,603.00
2023-02-11T16:36:07.614Z,603.00
2023-02-11T16:37:07.645Z,602.00
2023-02-11T16:38:07.652Z,602.00
2023-02-11T16:39:07.694Z,606.00
2023-02-11T16:40:07.669Z,609.00
2023-02-11T16:41:07.671Z,606.00
2023-02-11T16:42:07.875Z,605.00
2023-02-11T16:43:07.713Z,604.00
2023-02-11T16:44:07.724Z,606.00
2023-02-11T16:45:07.727Z,605.00
2023-02-11T16:46:07.760Z,603.00
2023-02-11T16:47:07.763Z,603.00
2023-02-11T16:48:07.780Z,603.00
2023-02-11T16:49:07.792Z,604.00
2023-02-11T16:50:07.816Z,604.00
2023-02-11T16:51:07.852Z,605.00
2023-02-11T16:52:07.857Z,602.00
2023-02-11T16:53:07.882Z,602.00
2023-02-11T16:54:07.916Z,603.00
2023-02-11T16:55:07.917Z,604.00
2023-02-11T16:56:07.943Z,603.00
2023-02-11T16:57:07.978Z,602.00
2023-02-11T16:58:08.016Z,602.00
2023-02-11T16:59:08.041Z,602.00
2023-02-11T17:00:08.072Z,605.00
2023-02-11T17:01:08.135Z,605.00
2023-02-11T17:02:08.110Z,608.00
2023-02-11T17:03:08.126Z,608.00
2023-02-11T17:04:08.134Z,607.00
2023-02-11T17:05:08.139Z,608.00
2023-02-11T17:06:08.151Z,608.00
2023-02-11T17:07:08.164Z,609.00
2023-02-11T17:08:08.173Z,609.00
2023-02-11T17:09:08.182Z,609.00
2023-02-11T17:10:08.186Z,607.00
2023-02-11T17:11:08.202Z,605.00
2023-02-11T17:12:08.220Z,604.00
2023-02-11T17:13:08.234Z,605.00
2023-02-11T17:14:08.248Z,606.00
2023-02-11T17:15:08.252Z,605.00
2023-02-11T17:16:08.308Z,603.00
2023-02-11T17:17:08.295Z,602.00
2023-02-11T17:18:08.301Z,602.00
2023-02-11T17:19:08.314Z,602.00
2023-02-11T17:20:08.332Z,602.00
2023-02-11T17:21:08.338Z,602.00
2023-02-11T17:22:08.351Z,604.00
2023-02-11T17:23:08.365Z,603.00
2023-02-11T17:24:08.371Z,601.00
2023-02-11T17:25:08.380Z,602.00
2023-02-11T17:26:08.388Z,607.00
2023-02-11T17:27:08.398Z,607.00
2023-02-11T17:28:08.526Z,606.00
2023-02-11T17:29:08.411Z,605.00
2023-02-11T17:30:08.415Z,605.00
2023-02-11T17:31:08.545Z,603.00
2023-02-11T17:32:08.521Z,604.00
2023-02-11T17:33:08.456Z,607.00
2023-02-11T17:34:08.467Z,607.00
2023-02-11T17:35:08.464Z,606.00
2023-02-11T17:36:08.497Z,605.00
2023-02-11T17:37:08.481Z,604.00
2023-02-11T17:38:08.498Z,606.00
2023-02-11T17:39:08.547Z,605.00
2023-02-11T17:40:08.529Z,609.00
2023-02-11T17:41:08.526Z,610.00
2023-02-11T17:42:08.566Z,610.00
2023-02-11T17:43:08.551Z,610.00
2023-02-11T17:44:08.571Z,610.00
2023-02-11T17:45:08.585Z,609.00
2023-02-11T17:46:08.641Z,609.00
2023-02-11T17:47:08.615Z,610.00
2023-02-11T17:48:08.618Z,611.00
2023-02-11T17:49:08.617Z,610.00
2023-02-11T17:50:08.678Z,607.00
2023-02-11T17:51:08.657Z,609.00
2023-02-11T17:52:08.644Z,608.00
2023-02-11T17:53:08.656Z,608.00
2023-02-11T17:54:08.681Z,606.00
2023-02-11T17:55:08.678Z,607.00
2023-02-11T17:56:08.685Z,608.00
2023-02-11T17:57:08.709Z,607.00
2023-02-11T17:58:08.714Z,608.00
2023-02-11T17:59:08.725Z,609.00
2023-02-11T18:00:08.737Z,610.00
2023-02-11T18:01:08.781Z,612.00
2023-02-11T18:02:08.765Z,612.00
2023-02-11T18:03:08.780Z,611.00
2023-02-11T18:04:08.813Z,608.00
2023-02-11T18:05:08.810Z,607.00
2023-02-11T18:06:08.836Z,609.00
2023-02-11T18:07:08.850Z,610.00
2023-02-11T18:08:08.861Z,609.00
2023-02-11T18:09:08.874Z,611.00
2023-02-11T18:10:08.877Z,612.00
2023-02-11T18:11:08.899Z,611.00
2023-02-11T18:12:08.913Z,611.00
2023-02-11T18:13:08.931Z,610.00
2023-02-11T18:14:08.970Z,612.00
2023-02-11T18:15:08.967Z,610.00
2023-02-11T18:16:09.030Z,609.00
2023-02-11T18:17:09.008Z,607.00
2023-02-11T18:18:09.030Z,606.00
2023-02-11T18:19:09.042Z,604.00
2023-02-11T18:20:09.065Z,603.00
2023-02-11T18:21:09.065Z,601.00
2023-02-11T18:22:09.098Z,602.00
2023-02-11T18:23:09.111Z,604.00
2023-02-11T18:24:09.122Z,603.00
2023-02-11T18:25:09.144Z,602.00
2023-02-11T18:26:09.176Z,604.00
2023-02-11T18:27:09.171Z,605.00
2023-02-11T18:28:09.212Z,603.00
2023-02-11T18:29:09.214Z,602.00
2023-02-11T18:30:09.238Z,603.00
2023-02-11T18:31:09.363Z,606.00
2023-02-11T18:32:09.277Z,605.00
2023-02-11T18:33:09.282Z,606.00
2023-02-11T18:34:09.296Z,606.00
2023-02-11T18:35:09.320Z,603.00
2023-02-11T18:36:09.329Z,601.00
2023-02-11T18:37:09.339Z,602.00
2023-02-11T18:38:09.360Z,599.00
2023-02-11T18:39:09.467Z,598.00
2023-02-11T18:40:09.382Z,599.00
2023-02-11T18:41:09.405Z,598.00
2023-02-11T18:42:09.412Z,599.00
2023-02-11T18:43:09.443Z,603.00
2023-02-11T18:44:09.445Z,606.00
2023-02-11T18:45:09.472Z,602.00
2023-02-11T18:46:09.551Z,600.00
2023-02-11T18:47:09.498Z,599.00
2023-02-11T18:48:09.506Z,600.00
2023-02-11T18:49:09.525Z,599.00
2023-02-11T18:50:09.559Z,601.00
2023-02-11T18:51:09.551Z,603.00
2023-02-11T18:52:09.561Z,607.00
2023-02-11T18:53:09.586Z,606.00
2023-02-11T18:54:09.625Z,604.00
2023-02-11T18:55:09.635Z,601.00
2023-02-11T18:56:09.638Z,601.00
2023-02-11T18:57:09.666Z,603.00
2023-02-11T18:58:09.676Z,604.00
2023-02-11T18:59:09.696Z,598.00
2023-02-11T19:00:09.721Z,599.00
2023-02-11T19:01:09.803Z,601.00
2023-02-11T19:02:09.757Z,598.00
2023-02-11T19:03:09.778Z,595.00
2023-02-11T19:04:09.848Z,595.00
2023-02-11T19:05:09.822Z,596.00
2023-02-11T19:06:09.862Z,598.00
2023-02-11T19:07:09.882Z,602.00
2023-02-11T19:08:09.898Z,601.00
2023-02-11T19:09:09.917Z,600.00
2023-02-11T19:10:09.938Z,598.00
2023-02-11T21:43:15.160Z,581.00
2023-02-11T21:44:15.222Z,585.00
2023-02-11T21:45:15.228Z,586.00
2023-02-11T21:46:15.285Z,587.00
2023-02-11T21:47:15.293Z,583.00
2023-02-11T21:48:16.304Z,587.00
2023-02-11T21:49:15.375Z,577.00
2023-02-11T21:50:15.396Z,576.00
2023-02-11T21:51:15.432Z,579.00
2023-02-11T21:52:15.459Z,580.00
2023-02-11T21:53:15.489Z,580.00
2023-02-11T21:54:15.520Z,578.00
2023-02-11T21:55:15.546Z,576.00
2023-02-11T21:56:15.583Z,577.00
2023-02-11T21:57:15.631Z,576.00
2023-02-11T21:58:15.653Z,576.00
2023-02-11T21:59:15.711Z,578.00
2023-02-11T22:00:15.727Z,578.00
2023-02-11T22:01:15.765Z,579.00
2023-02-11T22:02:15.789Z,578.00
2023-02-11T22:03:15.816Z,578.00
2023-02-11T22:04:15.877Z,576.00
2023-02-11T22:06:15.926Z,576.00
2023-02-11T23:36:19.243Z,574.00
2023-02-11T23:37:19.267Z,574.00
2023-02-11T23:38:19.303Z,576.00
2023-02-11T23:39:19.344Z,576.00
2023-02-11T23:40:19.376Z,575.00
2023-02-11T23:41:19.417Z,577.00
2023-02-11T23:42:19.461Z,577.00
2023-02-11T23:43:19.507Z,577.00
2023-02-11T23:44:19.529Z,575.00
2023-02-11T23:45:19.570Z,575.00
2023-02-11T23:46:19.657Z,578.00
2023-02-11T23:47:19.636Z,579.00
2023-02-11T23:48:19.674Z,579.00
2023-02-11T23:49:19.713Z,579.00
2023-02-11T23:50:19.759Z,579.00
2023-02-11T23:51:19.851Z,580.00
